メインページ
METAR-TAF:

METAR-TAF

空港 :

ジュノー, アラスカ州, アメリカ合衆国

ジュノー国際空港

緯度: 58-21-17N, 経度: 134-34-34W, 海抜: 6m

現時点の気象観測

当レポートは11分前の10:53(UTC)に作成
無風
気温 7°C
湿度 100%
気圧 1015 hPa
視程: 16.1km
高度100ftの雲はほとんどない
散在霧

METAR: PAJN 201053Z 00000KT 10SM BCFG FEW001 07/07 A2997 RMK AO2 SLP149 BCFG NE-SE T00670067

時間: 03:04 (11:04 UTC)

予報

当レポートは4時間26分前の06:38(UTC)に作成
予報は20日の 07時(UTC)から 21日の 06時(UTC)まで有効
西/北西の風 5kt
視程: 10km
高度3000ftの雲はほとんどない
高度12000ftの雲は散在している
高度20000ftの千切れ雲あり
20日の 07時(UTC)から 20日の 10時(UTC)まで一時的に
視程: 6.4km
高度300ftの雲はほとんどない
20日の 1000時(UTC)から
変向風 2kt
視程: 0.8km
高度200ftの
20日の 1700時(UTC)から
西/南西の風 4kt
視程: 10km
高度500ftの雲はほとんどない
20日の 2000時(UTC)から
西/南西の風 9kt
視程: 10km
高度20000ftの雲は散在している

TAF: PAJN 200638Z 2007/2106 30005KT P6SM FEW030 SCT120 BKN200 TEMPO 2007/2010 4SM BR FEW003 FM201000 VRB02KT 1/2SM FG VV002 FM201700 25004KT P6SM FEW005 FM202000 24009KT P6SM SCT200

4,000以上の空港の気象観測と天気予報(METAR報とTAF報)

利用可能な観測所は地図上に黄色い丸と赤い丸で示す。

丸の上にカーソルを重ねると観測所名を参照できる。

次にクリックすると気象観測と天気予報を参照できる。

マップの切り替え:黒色「×」印の緑ボタンをクリックして拡大、「-」印の緑ボタンをクリックして縮小、緑色の三角印をクリックして隣りの地図に切り替え


METAR-TAF: